»·PEaware :: JBU310 krno-kpsp

JBU310 :: krno-kpsp

FLIGHT INFORMATION

Flight Status: Arrived
Operator:
JetBlue Airways
More flights by this operator :: More flights under this callsign
Pilot: Carlos L. (14329)
Aircraft: AIRBUS A320
(A320)
More flights by this aircraft type
Origin: krno Reno/Tahoe Intl
United States
Destination: kpsp Palm Springs Intl
United States
More flights between these airports :: More routes between these airports
Route: +GFS SBONO1
File this flight plan on PilotEdge
Remarks: EQUIPMENT / L requesting rnav approach
Altitude:
(Current/Filed)
34,000ft
Speed:
(Current/Filed)
415kts
Departed: 27-Feb-17 10:01 PM
Arrived: 27-Feb-17 10:47 PM
Distance/Time
Traveled:
375nm/0:46
Distance/Time
To Go:
Arrived

Flight Plot

Page will automatically refresh every two minutes.


Map Options




Map Legend


Flown Route
Filed Route
Departure Airport
Arrival Airport
Navaid (VOR, NDB)
Fix

Horizontal Profiles

Position Reports

Time Latitude Longitude Heading Altitude Ground
Speed
27-Feb-17 22:01 36.973301 -116.891938 158 33874ft 443kts
27-Feb-17 22:02 36.872498 -116.807705 159 33846ft 442kts
27-Feb-17 22:03 36.772760 -116.747154 184 33830ft 397kts
27-Feb-17 22:04 36.658374 -116.732169 185 33830ft 395kts
27-Feb-17 22:05 36.562400 -116.661946 133 33838ft 485kts
27-Feb-17 22:06 36.492031 -116.519195 131 33829ft 489kts
27-Feb-17 22:07 36.407384 -116.398446 141 33818ft 472kts
27-Feb-17 22:08 36.327685 -116.276912 141 33827ft 471kts
27-Feb-17 22:09 36.251943 -116.167271 142 33828ft 469kts
27-Feb-17 22:10 36.161617 -116.076127 160 33809ft 437kts
27-Feb-17 22:11 36.060680 -115.992542 157 33820ft 442kts
27-Feb-17 22:12 35.961126 -115.904430 157 33840ft 444kts
27-Feb-17 22:13 35.863653 -115.818025 157 33833ft 447kts
27-Feb-17 22:14 35.764526 -115.730377 157 33842ft 446kts
27-Feb-17 22:15 35.665076 -115.642686 157 33834ft 446kts
27-Feb-17 22:16 35.565889 -115.555521 157 33836ft 447kts
27-Feb-17 22:17 35.467379 -115.469190 157 33839ft 446kts
27-Feb-17 22:18 35.367991 -115.382357 157 33845ft 445kts
27-Feb-17 22:19 35.270687 -115.355549 217 33857ft 360kts
27-Feb-17 22:20 35.187878 -115.417578 206 33861ft 369kts
27-Feb-17 22:21 35.091490 -115.452186 203 33166ft 360kts
27-Feb-17 22:22 35.010230 -115.479046 205 31558ft 333kts
27-Feb-17 22:23 34.916643 -115.513296 204 26790ft 371kts
27-Feb-17 22:24 34.825632 -115.547398 204 24727ft 379kts
27-Feb-17 22:25 34.728789 -115.584784 202 22233ft 389kts
27-Feb-17 22:26 34.626127 -115.618486 200 19901ft 363kts
27-Feb-17 22:27 34.532332 -115.646379 199 17831ft 355kts
27-Feb-17 22:28 34.441908 -115.673214 199 16191ft 352kts
27-Feb-17 22:29 34.339744 -115.703320 198 15256ft 395kts
27-Feb-17 22:30 34.233872 -115.734357 197 14306ft 390kts
27-Feb-17 22:31 34.129976 -115.764849 198 13331ft 386kts
27-Feb-17 22:32 34.040660 -115.828256 216 12353ft 375kts
27-Feb-17 22:33 33.956218 -115.896287 216 10952ft 357kts
27-Feb-17 22:34 33.904923 -115.974308 260 10496ft 297kts
27-Feb-17 22:35 33.892271 -116.065309 242 9100ft 283kts
27-Feb-17 22:36 33.832486 -116.112366 210 7860ft 243kts
27-Feb-17 22:37 33.775773 -116.145301 209 6782ft 215kts
27-Feb-17 22:38 33.725509 -116.173427 209 5878ft 192kts
27-Feb-17 22:39 33.690885 -116.211861 265 5184ft 178kts
27-Feb-17 22:40 33.684569 -116.269723 263 4561ft 166kts
27-Feb-17 22:41 33.679231 -116.322916 263 4223ft 160kts
27-Feb-17 22:42 33.682387 -116.373261 315 3928ft 142kts
27-Feb-17 22:43 33.713185 -116.400835 320 3179ft 140kts
27-Feb-17 22:44 33.744231 -116.429037 321 2365ft 139kts
27-Feb-17 22:45 33.774714 -116.457073 321 1691ft 139kts
27-Feb-17 22:46 33.804367 -116.484382 321 980ft 137kts
27-Feb-17 22:47 33.832457 -116.510141 322 430ft 53kts
27-Feb-17 22:48 33.832992 -116.512021 230 430ft 0kts
27-Feb-17 22:49 33.832910 -116.512122 214 430ft 4kts
27-Feb-17 22:50 33.830358 -116.510424 143 430ft 8kts
27-Feb-17 22:51 33.828695 -116.508860 134 430ft 7kts
27-Feb-17 22:52 33.827028 -116.507354 144 430ft 12kts
27-Feb-17 22:53 33.823542 -116.504196 151 430ft 10kts
27-Feb-17 22:54 33.822323 -116.505449 234 430ft 9kts
27-Feb-17 22:55 33.821920 -116.507142 235 430ft 0kts
27-Feb-17 22:56 33.821920 -116.507142 235 430ft 0kts

Navigation Log

Ident Type
Flight plan parsing failed, navigation log unavailable